createdAt,value
2022-11-22T00:02:07.659Z,81.31
2022-11-22T00:04:39.941Z,81.12
2022-11-22T00:07:12.152Z,81.29
2022-11-22T00:09:49.456Z,81.00
2022-11-22T00:12:21.697Z,80.83
2022-11-22T00:14:57.089Z,79.16
2022-11-22T00:17:29.217Z,78.86
2022-11-22T00:20:01.596Z,79.73
2022-11-22T00:22:39.683Z,79.70
2022-11-22T00:25:15.715Z,79.96
2022-11-22T00:27:47.758Z,80.88
2022-11-22T00:30:23.156Z,79.85
2022-11-22T00:32:54.903Z,80.69
2022-11-22T00:35:27.270Z,82.33
2022-11-22T00:37:59.036Z,81.66
2022-11-22T00:40:31.194Z,80.79
2022-11-22T00:43:03.187Z,80.88
2022-11-22T00:45:38.216Z,80.53
2022-11-22T00:48:10.000Z,81.80
2022-11-22T00:50:42.602Z,81.10
2022-11-22T00:53:14.258Z,81.47
2022-11-22T00:55:48.004Z,81.42
2022-11-22T00:58:19.960Z,81.10
2022-11-22T01:00:56.945Z,80.96
2022-11-22T01:03:29.268Z,80.86
2022-11-22T01:06:01.789Z,80.75
2022-11-22T01:08:33.527Z,82.17
2022-11-22T01:11:06.203Z,82.26
2022-11-22T01:13:38.637Z,82.27
2022-11-22T01:16:40.206Z,80.10
2022-11-22T01:19:57.116Z,80.60
2022-11-22T01:22:29.333Z,82.20
2022-11-22T01:25:01.118Z,82.43
2022-11-22T01:27:33.526Z,82.93
2022-11-22T01:30:34.146Z,82.23
2022-11-22T01:33:09.083Z,80.89
2022-11-22T01:35:41.448Z,81.14
2022-11-22T01:38:13.677Z,82.02
2022-11-22T01:40:45.385Z,81.04
2022-11-22T01:43:30.016Z,80.83
2022-11-22T01:46:04.943Z,80.24
2022-11-22T01:48:50.134Z,80.03
2022-11-22T01:51:29.241Z,80.03
2022-11-22T01:54:12.565Z,79.72
2022-11-22T01:56:58.069Z,80.61
2022-11-22T01:59:33.393Z,81.24
2022-11-22T02:02:05.935Z,81.64
2022-11-22T02:04:41.926Z,81.89
2022-11-22T02:07:22.176Z,82.21
2022-11-22T02:09:56.537Z,81.79
2022-11-22T02:12:32.326Z,80.32
2022-11-22T02:15:05.176Z,79.13
2022-11-22T02:17:36.909Z,79.74
2022-11-22T02:20:13.203Z,80.79
2022-11-22T02:22:55.454Z,80.05
2022-11-22T02:25:32.697Z,80.92
2022-11-22T02:28:07.747Z,80.43
2022-11-22T02:30:51.339Z,81.20
2022-11-22T02:33:23.145Z,79.84
2022-11-22T02:35:55.513Z,80.00
2022-11-22T02:38:29.816Z,79.80
2022-11-22T02:41:06.535Z,80.01
2022-11-22T02:43:45.395Z,79.85
2022-11-22T02:46:23.044Z,81.03
2022-11-22T02:48:54.805Z,81.17
2022-11-22T02:51:26.966Z,82.14
2022-11-22T02:53:58.606Z,82.66
2022-11-22T02:56:30.826Z,81.06
2022-11-22T02:59:05.501Z,80.68
2022-11-22T03:01:56.458Z,81.25
2022-11-22T03:04:31.325Z,80.73
2022-11-22T03:07:04.798Z,81.55
2022-11-22T03:09:37.327Z,81.73
2022-11-22T03:12:09.835Z,81.84
2022-11-22T03:14:44.809Z,81.22
2022-11-22T03:17:17.366Z,82.13
2022-11-22T03:19:49.088Z,81.52
2022-11-22T03:22:21.475Z,81.19
2022-11-22T03:24:53.527Z,80.92
2022-11-22T03:27:25.776Z,81.30
2022-11-22T03:30:00.290Z,81.78
2022-11-22T03:32:32.690Z,80.94
2022-11-22T03:35:04.468Z,81.33
2022-11-22T03:37:36.667Z,81.29
2022-11-22T03:40:10.001Z,80.78
2022-11-22T03:42:42.206Z,80.76
2022-11-22T03:45:17.518Z,81.27
2022-11-22T03:47:49.754Z,80.67
2022-11-22T03:50:21.637Z,79.87
2022-11-22T03:52:53.763Z,80.39
2022-11-22T03:55:25.466Z,80.68
2022-11-22T03:57:57.701Z,81.76
2022-11-22T04:00:31.957Z,82.32
2022-11-22T04:03:04.313Z,81.83
2022-11-22T04:05:36.211Z,81.83
2022-11-22T04:08:08.509Z,82.45
2022-11-22T04:10:40.397Z,81.28
2022-11-22T04:13:12.448Z,81.49
2022-11-22T04:15:44.607Z,80.47
2022-11-22T04:18:18.085Z,80.99
2022-11-22T04:21:02.299Z,81.50
2022-11-22T04:23:34.617Z,82.33
2022-11-22T04:26:03.756Z,82.25
2022-11-22T04:29:02.020Z,82.92
2022-11-22T04:31:42.215Z,82.14
2022-11-22T04:34:14.276Z,81.48
2022-11-22T04:36:46.036Z,82.03
2022-11-22T04:39:18.167Z,82.75
2022-11-22T04:42:10.069Z,83.78
2022-11-22T04:44:42.467Z,83.46
2022-11-22T04:47:39.825Z,83.06
2022-11-22T04:50:24.851Z,83.50
2022-11-22T04:52:57.999Z,82.62
2022-11-22T04:55:30.248Z,82.88
2022-11-22T04:58:30.128Z,84.21
2022-11-22T05:01:02.223Z,84.41
2022-11-22T05:03:36.520Z,84.39
2022-11-22T05:06:09.210Z,85.13
2022-11-22T05:08:40.756Z,83.56
2022-11-22T05:11:13.142Z,83.79
2022-11-22T05:13:45.600Z,84.62
2022-11-22T05:16:19.387Z,84.01
2022-11-22T05:19:02.338Z,83.93
2022-11-22T05:21:36.138Z,84.61
2022-11-22T05:24:06.653Z,84.26
2022-11-22T05:26:39.918Z,85.31
2022-11-22T05:29:13.851Z,85.98
2022-11-22T05:31:51.158Z,86.43
2022-11-22T05:34:26.431Z,86.54
2022-11-22T05:36:58.788Z,86.22
2022-11-22T05:39:31.007Z,85.63
2022-11-22T05:42:06.116Z,84.86
2022-11-22T05:44:38.549Z,85.63
2022-11-22T05:47:11.007Z,85.80
2022-11-22T05:49:46.417Z,85.75
2022-11-22T05:52:18.837Z,84.93
2022-11-22T05:54:50.907Z,85.10
2022-11-22T05:57:23.481Z,85.17
2022-11-22T05:59:55.823Z,84.72
2022-11-22T06:02:28.504Z,82.73
2022-11-22T06:07:36.433Z,83.34
2022-11-22T06:10:09.168Z,84.80
2022-11-22T06:12:41.687Z,85.82
2022-11-22T06:15:14.870Z,85.09
2022-11-22T06:17:47.429Z,84.98
2022-11-22T06:20:22.753Z,84.93
2022-11-22T06:22:55.647Z,84.28
2022-11-22T06:25:28.926Z,84.31
2022-11-22T06:28:03.132Z,84.59
2022-11-22T06:30:35.369Z,83.62
2022-11-22T06:33:07.727Z,83.24
2022-11-22T06:35:42.549Z,82.94
2022-11-22T06:38:14.968Z,83.59
2022-11-22T06:40:47.447Z,84.19
2022-11-22T06:43:20.027Z,85.00
2022-11-22T06:45:52.387Z,84.78
2022-11-22T06:48:24.950Z,84.68
2022-11-22T06:51:02.368Z,84.44
2022-11-22T06:53:51.497Z,83.91
2022-11-22T06:56:25.911Z,83.53
2022-11-22T06:59:00.629Z,83.76
2022-11-22T07:01:34.091Z,83.76
2022-11-22T07:04:07.872Z,84.16
2022-11-22T07:06:44.709Z,85.11
2022-11-22T07:09:17.251Z,84.19
2022-11-22T07:11:49.229Z,84.51
2022-11-22T07:14:21.691Z,82.79
2022-11-22T07:16:53.647Z,83.79
2022-11-22T07:19:25.907Z,84.47
2022-11-22T07:22:00.629Z,84.72
2022-11-22T07:24:33.511Z,84.11
2022-11-22T07:27:05.390Z,83.77
2022-11-22T07:29:37.865Z,84.15
2022-11-22T07:32:10.008Z,83.14
2022-11-22T07:34:42.457Z,83.42
2022-11-22T07:37:17.230Z,83.06
2022-11-22T07:39:49.859Z,82.40
2022-11-22T07:42:26.005Z,82.61
2022-11-22T07:44:59.282Z,82.93
2022-11-22T07:47:31.497Z,82.56
2022-11-22T07:50:03.719Z,82.86
2022-11-22T07:52:38.581Z,83.58
2022-11-22T07:55:14.256Z,83.00
2022-11-22T07:57:46.560Z,81.35
2022-11-22T08:00:19.398Z,82.17
2022-11-22T08:02:51.423Z,82.87
2022-11-22T08:05:24.540Z,82.14
2022-11-22T08:07:59.421Z,81.78
2022-11-22T08:10:31.915Z,82.23
2022-11-22T08:13:06.407Z,82.32
2022-11-22T08:15:38.780Z,82.85
2022-11-22T08:18:10.560Z,82.22
2022-11-22T08:20:42.903Z,82.60
2022-11-22T08:23:17.940Z,83.55
2022-11-22T08:25:50.703Z,82.69
2022-11-22T08:28:23.177Z,82.70
2022-11-22T08:30:55.866Z,84.34
2022-11-22T08:33:28.546Z,85.11
2022-11-22T08:36:01.667Z,84.58
2022-11-22T08:38:37.228Z,85.42
2022-11-22T08:41:10.620Z,84.69
2022-11-22T08:43:43.619Z,84.43
2022-11-22T08:46:16.619Z,85.15
2022-11-22T08:48:49.859Z,83.98
2022-11-22T08:51:23.263Z,84.19
2022-11-22T08:53:58.460Z,83.99
2022-11-22T08:56:31.296Z,83.08
2022-11-22T08:59:03.706Z,84.95
2022-11-22T09:01:37.281Z,84.06
2022-11-22T09:04:09.585Z,84.41
2022-11-22T09:09:38.189Z,83.93
2022-11-22T09:12:12.138Z,83.57
2022-11-22T09:14:44.380Z,83.29
2022-11-22T09:17:18.255Z,84.63
2022-11-22T09:19:50.862Z,85.22
2022-11-22T09:22:28.228Z,84.63
2022-11-22T09:25:03.769Z,84.83
2022-11-22T09:27:37.420Z,84.53
2022-11-22T09:30:11.826Z,84.47
2022-11-22T09:32:47.494Z,85.65
2022-11-22T09:35:20.735Z,86.32
2022-11-22T09:37:53.443Z,85.26
2022-11-22T09:40:28.400Z,85.50
2022-11-22T09:43:19.118Z,84.66
2022-11-22T09:46:06.637Z,85.34
2022-11-22T09:49:04.566Z,87.09
2022-11-22T09:51:44.561Z,86.77
2022-11-22T09:54:22.242Z,85.78
2022-11-22T09:57:00.091Z,84.17
2022-11-22T09:59:36.243Z,82.19
2022-11-22T10:02:19.035Z,81.50
2022-11-22T10:04:58.606Z,81.41
2022-11-22T10:07:38.589Z,82.70
2022-11-22T10:10:15.641Z,84.31
2022-11-22T10:12:55.680Z,83.79
2022-11-22T10:15:35.360Z,83.25
2022-11-22T10:18:14.885Z,84.46
2022-11-22T10:20:58.078Z,83.09
2022-11-22T10:23:33.288Z,82.08
2022-11-22T10:26:11.924Z,83.17
2022-11-22T10:28:57.448Z,84.08
2022-11-22T10:31:37.606Z,84.90
2022-11-22T10:34:19.081Z,83.18
2022-11-22T10:36:58.477Z,82.27
2022-11-22T10:39:52.679Z,83.10
2022-11-22T10:42:42.248Z,82.06
2022-11-22T10:45:24.774Z,81.90
2022-11-22T10:48:06.542Z,82.34
2022-11-22T10:50:51.540Z,82.40
2022-11-22T10:53:35.660Z,82.82
2022-11-22T10:56:17.771Z,82.46
2022-11-22T10:59:06.037Z,82.56
2022-11-22T11:01:49.421Z,84.20
2022-11-22T11:04:24.736Z,84.55
2022-11-22T11:07:16.401Z,83.97
2022-11-22T11:12:46.751Z,81.69
2022-11-22T11:15:24.672Z,80.40
2022-11-22T11:18:05.549Z,81.06
2022-11-22T11:20:42.017Z,81.50
2022-11-22T11:23:15.842Z,82.35
2022-11-22T11:25:52.910Z,83.00
2022-11-22T11:28:27.277Z,83.52
2022-11-22T11:31:02.662Z,82.33
2022-11-22T11:33:39.977Z,81.42
2022-11-22T11:36:15.819Z,81.77
2022-11-22T11:38:59.851Z,81.81
2022-11-22T11:41:38.816Z,80.93
2022-11-22T11:44:32.790Z,81.07
2022-11-22T11:47:06.571Z,82.22
2022-11-22T11:49:41.774Z,81.16
2022-11-22T11:52:22.775Z,82.00
2022-11-22T11:54:58.732Z,82.78
2022-11-22T11:57:33.813Z,82.07
2022-11-22T12:00:09.502Z,82.23
2022-11-22T12:02:46.980Z,82.80
2022-11-22T12:05:32.701Z,82.24
2022-11-22T12:08:05.695Z,82.18
2022-11-22T12:10:47.978Z,81.85
2022-11-22T12:13:28.094Z,81.16
2022-11-22T12:16:07.665Z,81.79
2022-11-22T12:18:48.453Z,82.11
2022-11-22T12:21:37.256Z,83.21
2022-11-22T12:27:07.662Z,81.84
2022-11-22T12:29:43.843Z,81.93
2022-11-22T12:32:23.410Z,82.06
2022-11-22T12:35:01.949Z,81.42
2022-11-22T12:37:43.626Z,81.42
2022-11-22T12:40:20.769Z,81.93
2022-11-22T12:42:56.228Z,81.13
2022-11-22T12:45:33.111Z,80.76
2022-11-22T12:48:09.973Z,81.43
2022-11-22T12:50:47.494Z,81.44
2022-11-22T12:53:26.755Z,81.75
2022-11-22T12:56:07.568Z,81.83
2022-11-22T12:58:45.072Z,81.36
2022-11-22T13:01:23.994Z,81.17
2022-11-22T13:04:01.400Z,82.48
2022-11-22T13:06:45.237Z,79.52
2022-11-22T13:09:25.745Z,78.90
2022-11-22T13:12:03.179Z,78.70
2022-11-22T13:17:58.384Z,80.14
2022-11-22T13:20:38.111Z,80.47
2022-11-22T13:23:29.719Z,81.46
2022-11-22T13:26:14.853Z,81.58
2022-11-22T13:28:48.818Z,82.78
2022-11-22T13:31:23.112Z,81.58
2022-11-22T13:33:58.809Z,81.37
2022-11-22T13:36:43.899Z,80.80
2022-11-22T13:39:27.315Z,79.92
2022-11-22T13:42:09.843Z,79.98
2022-11-22T13:44:54.857Z,81.75
2022-11-22T13:47:45.419Z,82.89
2022-11-22T13:50:59.625Z,82.36
2022-11-22T13:53:35.343Z,82.69
2022-11-22T13:56:38.503Z,82.01
2022-11-22T13:59:21.274Z,81.97
2022-11-22T14:02:06.076Z,81.13
2022-11-22T14:04:47.001Z,81.49
2022-11-22T14:07:41.565Z,82.05
2022-11-22T14:10:33.555Z,82.24
2022-11-22T14:13:23.477Z,82.48
2022-11-22T14:16:23.934Z,82.13
2022-11-22T14:19:04.949Z,81.86
2022-11-22T14:22:03.241Z,81.72
2022-11-22T14:25:01.537Z,81.95
2022-11-22T14:27:47.372Z,82.74
2022-11-22T14:30:36.648Z,82.28
2022-11-22T14:33:20.482Z,82.48
2022-11-22T14:36:18.045Z,82.66
2022-11-22T14:38:51.282Z,82.90
2022-11-22T14:41:55.949Z,82.46
2022-11-22T14:44:37.784Z,81.44
2022-11-22T14:47:16.424Z,81.90
2022-11-22T14:49:54.659Z,82.57
2022-11-22T14:52:29.460Z,82.61
2022-11-22T14:55:06.510Z,83.52
2022-11-22T14:57:41.101Z,81.88
2022-11-22T15:00:23.032Z,83.69
2022-11-22T15:03:40.429Z,84.32
2022-11-22T15:09:16.585Z,82.94
2022-11-22T15:09:58.797Z,83.34
2022-11-22T15:12:50.969Z,83.63
2022-11-22T15:57:33.567Z,83.70
2022-11-22T16:00:13.818Z,83.16
2022-11-22T16:02:53.276Z,84.45
2022-11-22T16:06:07.736Z,84.42
2022-11-22T16:08:26.629Z,83.97
2022-11-22T16:11:07.531Z,84.94
2022-11-22T16:13:40.512Z,85.31
2022-11-22T16:16:24.668Z,84.76
2022-11-22T16:18:56.574Z,84.46
2022-11-22T16:21:32.194Z,85.42
2022-11-22T16:24:21.031Z,85.88
2022-11-22T16:27:04.246Z,85.02
2022-11-22T16:29:38.788Z,85.46
2022-11-22T16:32:15.285Z,86.35
2022-11-22T16:35:08.375Z,86.36
2022-11-22T16:37:48.307Z,86.26
2022-11-22T16:40:20.715Z,85.83
2022-11-22T16:42:55.482Z,85.70
2022-11-22T16:45:47.193Z,85.80
2022-11-22T16:48:35.852Z,85.80
2022-11-22T16:51:12.669Z,85.91
2022-11-22T16:53:47.497Z,86.42
2022-11-22T16:56:24.979Z,86.94
2022-11-22T16:59:04.249Z,86.02
2022-11-22T17:01:38.522Z,85.68
2022-11-22T17:04:11.206Z,85.16
2022-11-22T17:06:44.850Z,85.38
2022-11-22T17:09:20.188Z,85.06
2022-11-22T17:11:52.440Z,84.91
2022-11-22T17:14:27.087Z,86.13
2022-11-22T17:16:58.458Z,86.90
2022-11-22T17:22:54.206Z,86.82
2022-11-22T17:25:26.120Z,85.43
2022-11-22T17:27:57.459Z,85.24
2022-11-22T17:30:32.133Z,85.30
2022-11-22T17:33:03.893Z,85.90
2022-11-22T17:35:37.168Z,84.85
2022-11-22T17:38:12.294Z,84.47
2022-11-22T17:40:45.989Z,86.08
2022-11-22T17:43:17.435Z,86.26
2022-11-22T17:45:51.469Z,86.43
2022-11-22T17:48:23.988Z,86.48
2022-11-22T17:50:55.847Z,85.83
2022-11-22T17:53:27.966Z,85.43
2022-11-22T17:56:16.768Z,85.08
2022-11-22T17:58:50.914Z,84.83
2022-11-22T18:01:26.355Z,84.24
2022-11-22T18:03:58.161Z,83.45
2022-11-22T18:06:31.661Z,83.36
2022-11-22T18:09:04.862Z,83.40
2022-11-22T18:18:48.554Z,84.77
2022-11-22T18:21:17.191Z,85.78
2022-11-22T18:23:50.000Z,84.44
2022-11-22T18:26:39.709Z,84.29
2022-11-22T18:32:07.677Z,83.14
2022-11-22T18:34:42.911Z,84.05
2022-11-22T18:37:15.521Z,84.09
2022-11-22T18:39:48.042Z,84.29
2022-11-22T18:42:23.043Z,84.99
2022-11-22T18:44:55.205Z,85.01
2022-11-22T18:47:27.923Z,85.11
2022-11-22T18:50:02.522Z,84.90
2022-11-22T18:52:38.722Z,84.27
2022-11-22T18:55:12.109Z,84.79
2022-11-22T18:57:44.195Z,84.07
2022-11-22T19:00:17.279Z,84.24
2022-11-22T19:02:49.519Z,83.70
2022-11-22T19:05:24.676Z,83.44
2022-11-22T19:07:56.885Z,83.04
2022-11-22T19:10:28.143Z,83.96
2022-11-22T19:13:05.118Z,85.21
2022-11-22T19:15:36.978Z,84.91
2022-11-22T19:18:10.064Z,85.38
2022-11-22T19:20:55.184Z,86.50
2022-11-22T19:23:29.152Z,84.91
2022-11-22T19:26:00.302Z,84.41
2022-11-22T19:28:32.186Z,85.59
2022-11-22T19:31:05.269Z,84.14
2022-11-22T19:33:37.708Z,84.94
2022-11-22T19:36:15.145Z,86.03
2022-11-22T19:39:11.124Z,86.53
2022-11-22T19:41:44.505Z,86.94
2022-11-22T19:44:16.508Z,86.24
2022-11-22T19:46:50.195Z,84.89
2022-11-22T19:49:22.076Z,82.99
2022-11-22T19:51:56.796Z,82.46
2022-11-22T19:54:29.197Z,84.43
2022-11-22T19:57:01.339Z,84.83
2022-11-22T19:59:34.765Z,85.50
2022-11-22T20:02:07.298Z,84.65
2022-11-22T20:04:39.716Z,82.61
2022-11-22T20:07:14.486Z,82.65
2022-11-22T20:09:46.896Z,83.00
2022-11-22T20:12:19.077Z,82.48
2022-11-22T20:14:51.736Z,83.83
2022-11-22T20:17:23.858Z,83.69
2022-11-22T20:19:56.392Z,84.31
2022-11-22T20:22:30.990Z,84.85
2022-11-22T20:25:06.087Z,84.78
2022-11-22T20:27:40.469Z,84.22
2022-11-22T20:30:14.489Z,84.63
2022-11-22T20:32:46.586Z,84.25
2022-11-22T20:35:19.321Z,84.67
2022-11-22T20:37:54.021Z,85.07
2022-11-22T20:40:26.248Z,85.11
2022-11-22T20:42:58.098Z,83.75
2022-11-22T20:45:30.646Z,82.68
2022-11-22T20:48:02.671Z,82.29
2022-11-22T20:50:34.894Z,82.62
2022-11-22T20:53:11.429Z,82.61
2022-11-22T20:55:43.626Z,84.28
2022-11-22T20:58:15.527Z,85.88
2022-11-22T21:00:48.095Z,85.30
2022-11-22T21:03:20.368Z,85.34
2022-11-22T21:05:55.049Z,84.54
2022-11-22T21:08:29.559Z,84.35
2022-11-22T21:11:10.509Z,83.75
2022-11-22T21:13:42.033Z,83.28
2022-11-22T21:16:23.324Z,84.00
2022-11-22T21:18:57.327Z,84.10
2022-11-22T21:21:29.880Z,84.32
2022-11-22T21:24:07.108Z,85.79
2022-11-22T21:26:39.602Z,85.67
2022-11-22T21:29:16.517Z,86.03
2022-11-22T21:31:49.297Z,85.46
2022-11-22T21:34:21.111Z,86.38
2022-11-22T21:36:53.955Z,85.85
2022-11-22T21:39:28.959Z,86.81
2022-11-22T21:42:01.504Z,86.75
2022-11-22T21:44:37.621Z,86.17
2022-11-22T21:47:12.665Z,86.25
2022-11-22T21:49:47.483Z,84.62
2022-11-22T21:52:19.635Z,84.14
2022-11-22T21:54:55.087Z,83.89
2022-11-22T21:57:27.457Z,83.66
2022-11-22T21:59:59.251Z,85.07
2022-11-22T22:02:33.003Z,86.20
2022-11-22T22:05:05.225Z,85.88
2022-11-22T22:07:51.988Z,85.61
2022-11-22T22:10:27.589Z,85.53
2022-11-22T22:13:00.236Z,84.57
2022-11-22T22:15:32.135Z,84.47
2022-11-22T22:18:04.345Z,85.19
2022-11-22T22:20:35.830Z,85.69
2022-11-22T22:23:07.767Z,86.14
2022-11-22T22:25:45.275Z,86.95
2022-11-22T22:28:17.038Z,85.76
2022-11-22T22:30:48.468Z,86.47
2022-11-22T22:33:20.320Z,86.99
2022-11-22T22:35:51.630Z,87.11
2022-11-22T22:38:23.284Z,87.95
2022-11-22T22:40:59.886Z,88.41
2022-11-22T22:43:36.403Z,88.38
2022-11-22T22:46:11.053Z,88.71
2022-11-22T22:48:43.891Z,88.77
2022-11-22T22:51:16.623Z,87.37
2022-11-22T22:53:48.950Z,86.16
2022-11-22T22:56:25.868Z,87.41
2022-11-22T22:58:58.335Z,87.85
2022-11-22T23:01:31.923Z,87.19
2022-11-22T23:04:05.539Z,86.74
2022-11-22T23:06:39.764Z,86.79
2022-11-22T23:09:13.218Z,87.95
2022-11-22T23:11:59.657Z,87.98
2022-11-22T23:14:33.740Z,88.81
2022-11-22T23:17:05.246Z,88.09
2022-11-22T23:19:37.009Z,87.86
2022-11-22T23:22:08.398Z,87.60
2022-11-22T23:24:40.409Z,88.78
2022-11-22T23:27:14.509Z,88.45
2022-11-22T23:29:46.371Z,88.39
2022-11-22T23:32:18.230Z,88.33
2022-11-22T23:34:50.212Z,88.22
2022-11-22T23:37:21.416Z,89.43
2022-11-22T23:43:19.098Z,88.10
2022-11-22T23:45:50.888Z,87.15
2022-11-22T23:48:22.478Z,86.58
2022-11-22T23:50:54.251Z,87.03
2022-11-22T23:53:25.535Z,86.77
2022-11-22T23:55:56.988Z,87.58
2022-11-22T23:58:33.347Z,87.10
